Time;durP1;ratioP1;P1;durP2;ratioP2;P2;SDS_P1;SDS_P2;PMS_P1;PMS_P2;Temp;Humidity;BMP_temperature;BMP_pressure;BME280_temperature;BME280_humidity;BME280_pressure;Samples;Min_cycle;Max_cycle;Signal;HPM_P1;HPM_P2
2022/03/02 00:01:25;;;;;;;37.22;23.13;;;;;;;3.82;98.42;67200.84;5007571;28;20042;-87
2022/03/02 00:03:51;;;;;;;38.90;24.98;;;;;;;3.82;98.95;67200.84;4988261;28;20042;-88
2022/03/02 00:06:17;;;;;;;33.70;23.60;;;;;;;3.87;98.71;67205.94;5003934;28;20088;-88
2022/03/02 00:08:42;;;;;;;33.80;23.15;;;;;;;3.85;99.16;67204.22;5008214;28;20052;-87
2022/03/02 00:11:07;;;;;;;37.03;24.58;;;;;;;3.84;99.60;67208.94;4989824;28;20486;-88
2022/03/02 00:13:33;;;;;;;36.03;22.20;;;;;;;3.70;98.89;67193.16;4992427;28;20046;-87
2022/03/02 00:15:59;;;;;;;36.90;21.95;;;;;;;3.64;99.63;67181.13;5009195;28;20100;-87
2022/03/02 00:18:24;;;;;;;32.65;22.60;;;;;;;3.70;100.00;67187.88;5031503;28;20050;-86
2022/03/02 00:20:49;;;;;;;33.55;23.88;;;;;;;3.79;100.00;67203.28;5033683;28;20559;-87
2022/03/02 00:23:15;;;;;;;35.53;24.35;;;;;;;3.84;99.72;67208.38;5026906;28;20128;-86
2022/03/02 00:25:40;;;;;;;34.75;23.55;;;;;;;3.87;100.00;67211.19;5027386;28;20091;-86
2022/03/02 00:28:06;;;;;;;34.83;23.58;;;;;;;;;;4996949;28;20552;-87
2022/03/02 00:30:31;;;;;;;33.65;22.40;;;;;;;3.89;99.61;67213.47;5003975;28;20073;-86
2022/03/02 00:32:59;;;;;;;38.90;23.48;;;;;;;3.84;98.99;67203.69;5020607;28;20510;-86
2022/03/02 00:35:24;;;;;;;35.88;24.10;;;;;;;3.77;99.90;67195.22;5008225;28;20402;-87
2022/03/02 00:37:50;;;;;;;32.85;23.77;;;;;;;3.89;100.00;67208.75;5009413;28;20038;-86
2022/03/02 00:40:15;;;;;;;37.85;22.27;;;;;;;3.82;99.60;67204.03;4990095;28;20069;-86
2022/03/02 00:42:41;;;;;;;33.03;22.15;;;;;;;;;;4953616;28;20054;-86
2022/03/02 00:45:06;;;;;;;35.22;24.00;;;;;;;3.82;100.00;67203.47;4986267;23;20105;-87
2022/03/02 00:47:32;;;;;;;35.60;23.60;;;;;;;3.81;100.00;67200.28;4952070;28;20400;-87
2022/03/02 00:49:58;;;;;;;36.40;24.25;;;;;;;3.77;100.00;67195.22;4967116;28;20039;-87
2022/03/02 00:52:23;;;;;;;41.95;24.73;;;;;;;3.82;100.00;67203.47;4952742;28;20043;-87
2022/03/02 00:54:49;;;;;;;40.75;26.15;;;;;;;;;;4967542;28;20122;-87
2022/03/02 00:57:14;;;;;;;39.72;25.75;;;;;;;3.89;100.00;67208.19;4967218;28;20051;-87
2022/03/02 00:59:39;;;;;;;36.55;23.90;;;;;;;3.84;100.00;67203.13;4946946;28;20508;-87
2022/03/02 01:02:05;;;;;;;39.55;25.08;;;;;;;3.78;100.00;67196.34;4929496;28;20039;-87
2022/03/02 01:04:30;;;;;;;37.83;25.63;;;;;;;3.80;100.00;67199.16;4909408;29;20709;-87
2022/03/02 01:06:56;;;;;;;42.30;26.85;;;;;;;;;;4911031;29;20044;-87
2022/03/02 01:09:21;;;;;;;44.47;27.00;;;;;;;3.79;100.00;67202.72;4923423;29;20085;-87
2022/03/02 01:11:47;;;;;;;36.50;24.45;;;;;;;3.68;100.00;67185.06;4920646;29;20087;-87
2022/03/02 01:14:12;;;;;;;38.30;24.27;;;;;;;3.70;100.00;67187.31;4917198;29;20044;-87
2022/03/02 01:16:37;;;;;;;37.72;24.80;;;;;;;3.71;100.00;67193.69;4895715;29;20185;-87
2022/03/02 01:19:03;;;;;;;39.75;25.83;;;;;;;;;;4909406;29;20048;-87
2022/03/02 01:21:28;;;;;;;37.28;25.90;;;;;;;3.78;100.00;67196.91;4920217;28;20032;-87
2022/03/02 01:23:56;;;;;;;38.88;24.90;;;;;;;3.64;100.00;67185.81;4920658;29;20032;-87
2022/03/02 01:26:22;;;;;;;37.88;26.52;;;;;;;3.59;100.00;67175.47;4918666;28;20173;-86
2022/03/02 01:28:47;;;;;;;37.70;24.90;;;;;;;;;;4919842;29;20052;-86
2022/03/02 01:31:13;;;;;;;37.95;24.55;;;;;;;3.75;100.00;67193.53;4933847;29;20050;-86
2022/03/02 01:33:38;;;;;;;36.75;24.33;;;;;;;3.65;100.00;67181.69;4947976;29;20043;-86
2022/03/02 01:36:04;;;;;;;40.90;24.13;;;;;;;3.57;100.00;67173.22;4942016;28;20126;-87
2022/03/02 01:38:29;;;;;;;36.88;24.92;;;;;;;3.63;100.00;67184.69;4932677;29;20103;-88
2022/03/02 01:40:55;;;;;;;37.47;25.25;;;;;;;3.70;100.00;67189.94;4933053;29;20062;-87
2022/03/02 01:43:20;;;;;;;33.15;22.83;;;;;;;3.57;100.00;67173.22;4929879;29;20407;-86
2022/03/02 01:45:46;;;;;;;38.28;26.35;;;;;;;3.65;100.00;67176.97;4933091;29;20040;-86
2022/03/02 01:48:11;;;;;;;38.53;23.48;;;;;;;3.64;100.00;67183.19;4939284;29;20079;-87
2022/03/02 01:50:37;;;;;;;39.33;24.92;;;;;;;3.68;100.00;67185.06;4967792;28;20064;-86
2022/03/02 01:53:02;;;;;;;38.63;24.48;;;;;;;3.65;100.00;67182.22;4962171;28;20462;-86
2022/03/02 01:55:28;;;;;;;39.45;22.20;;;;;;;3.63;100.00;67182.63;4962999;28;20111;-86
2022/03/02 01:57:56;;;;;;;38.80;24.50;;;;;;;3.68;100.00;67185.63;4965111;28;20039;-87
2022/03/02 02:00:23;;;;;;;37.92;24.63;;;;;;;3.71;100.00;67189.03;4962418;28;20147;-86
2022/03/02 02:02:50;;;;;;;37.45;24.55;;;;;;;3.70;100.00;67189.94;4936838;28;20043;-86
2022/03/02 02:05:16;;;;;;;37.42;23.63;;;;;;;3.64;100.00;67186.38;4938028;28;20125;-86
2022/03/02 02:07:42;;;;;;;36.85;23.50;;;;;;;3.68;100.00;67185.63;4945734;28;20724;-87
2022/03/02 02:10:08;;;;;;;36.20;25.13;;;;;;;3.61;100.00;67178.28;4951725;28;20099;-86
2022/03/02 02:12:35;;;;;;;39.70;24.00;;;;;;;3.58;100.00;67174.91;4920661;29;20047;-87
2022/03/02 02:15:00;;;;;;;40.58;26.13;;;;;;;3.65;100.00;67181.69;4931948;28;20043;-87
2022/03/02 02:17:27;;;;;;;37.58;25.67;;;;;;;3.66;100.00;67185.44;4945274;28;20582;-86
2022/03/02 02:19:52;;;;;;;41.97;25.63;;;;;;;3.51;100.00;67171.69;4937783;28;20561;-87
2022/03/02 02:22:18;;;;;;;37.80;23.40;;;;;;;3.42;100.00;67156.28;4936666;28;20054;-86
2022/03/02 02:24:43;;;;;;;38.63;24.65;;;;;;;;;;4933665;29;20055;-86
2022/03/02 02:27:11;;;;;;;42.42;26.90;;;;;;;3.44;100.00;67158.56;4924026;29;20512;-87
2022/03/02 02:29:38;;;;;;;41.13;26.40;;;;;;;3.45;100.00;67162.31;4945473;29;20083;-86
2022/03/02 02:32:04;;;;;;;39.38;23.80;;;;;;;3.37;100.00;67157.06;4943532;29;20482;-86
2022/03/02 02:34:29;;;;;;;40.65;25.55;;;;;;;3.32;100.00;67146.16;4945250;28;20511;-87
2022/03/02 02:36:57;;;;;;;39.58;25.40;;;;;;;3.40;100.00;67154.63;4954506;28;20043;-87
2022/03/02 02:39:24;;;;;;;40.30;26.60;;;;;;;3.42;100.00;67156.84;4927123;29;20059;-87
2022/03/02 02:41:50;;;;;;;41.28;25.90;;;;;;;3.46;100.00;67160.81;4930354;29;20043;-86
2022/03/02 02:44:15;;;;;;;38.70;24.50;;;;;;;3.41;100.00;67160.44;4928536;29;20044;-87
2022/03/02 02:46:43;;;;;;;44.35;24.05;;;;;;;3.33;100.00;67146.72;4932193;29;20106;-87
2022/03/02 02:49:08;;;;;;;41.67;26.23;;;;;;;3.34;100.00;67148.41;4942300;28;20502;-87
2022/03/02 02:51:33;;;;;;;40.90;27.45;;;;;;;3.29;100.00;67142.78;4934698;29;20055;-86
2022/03/02 02:53:59;;;;;;;37.60;22.67;;;;;;;3.13;100.00;67127.34;4936894;28;20039;-87
2022/03/02 02:56:24;;;;;;;39.55;23.58;;;;;;;3.08;100.00;67119.66;4932461;29;20048;-87
2022/03/02 02:58:50;;;;;;;41.05;27.25;;;;;;;3.20;100.00;67127.38;4927819;29;20052;-87
2022/03/02 03:01:17;;;;;;;36.50;24.73;;;;;;;3.14;100.00;67125.84;4948905;28;20106;-88
2022/03/02 03:03:42;;;;;;;43.65;27.40;;;;;;;3.12;100.00;67126.22;4927026;29;20190;-87
2022/03/02 03:06:08;;;;;;;40.88;27.02;;;;;;;3.13;100.00;67127.34;4902082;28;20122;-86
2022/03/02 03:08:34;;;;;;;40.50;26.00;;;;;;;;;;4930464;29;20047;-87
2022/03/02 03:10:59;;;;;;;41.95;24.48;;;;;;;2.93;100.00;67102.72;4946642;28;20097;-87
2022/03/02 03:13:25;;;;;;;40.10;26.95;;;;;;;2.96;100.00;67108.75;4927730;29;20126;-86
2022/03/02 03:15:50;;;;;;;39.13;24.88;;;;;;;;;;4944519;28;20043;-87
2022/03/02 03:18:16;;;;;;;39.10;24.40;;;;;;;2.98;100.00;67111.00;4919114;29;20048;-86
2022/03/02 03:20:41;;;;;;;42.40;26.48;;;;;;;;;;4942666;29;20685;-87
2022/03/02 03:23:07;;;;;;;36.22;23.20;;;;;;;;;;4944467;28;20043;-87
2022/03/02 03:25:33;;;;;;;40.13;23.38;;;;;;;2.69;100.00;67076.81;4939893;29;20036;-87
2022/03/02 03:28:00;;;;;;;43.45;26.77;;;;;;;2.78;100.00;67091.66;4946731;28;20052;-87
2022/03/02 03:30:27;;;;;;;39.13;23.58;;;;;;;2.86;100.00;67098.03;4926618;29;20043;-89
2022/03/02 03:32:53;;;;;;;40.83;27.40;;;;;;;2.92;100.00;67104.25;4942757;28;20055;-86
2022/03/02 03:35:20;;;;;;;39.78;23.63;;;;;;;;;;4932888;29;20836;-87
2022/03/02 03:37:46;;;;;;;38.50;22.73;;;;;;;;;;4933464;29;20423;-87
2022/03/02 03:40:13;;;;;;;40.97;23.52;;;;;;;2.71;100.00;67083.75;4939544;28;20168;-86
2022/03/02 03:42:40;;;;;;;42.75;26.58;;;;;;;2.81;100.00;67089.78;4926636;29;20511;-87
2022/03/02 03:45:07;;;;;;;40.55;27.38;;;;;;;2.83;100.00;67092.03;4944620;28;20135;-87
2022/03/02 03:47:33;;;;;;;39.70;28.00;;;;;;;2.85;100.00;67098.97;4943460;29;20055;-86
2022/03/02 03:49:58;;;;;;;40.53;23.67;;;;;;;2.83;100.00;67094.66;4925517;29;20103;-87
2022/03/02 03:52:24;;;;;;;38.60;24.80;;;;;;;2.69;100.00;67076.81;4938618;28;20166;-86
2022/03/02 03:54:49;;;;;;;37.63;23.70;;;;;;;2.61;100.00;67069.84;4936387;29;20051;-86
2022/03/02 03:57:15;;;;;;;38.63;23.73;;;;;;;2.57;100.00;67062.72;4941973;28;20039;-86
2022/03/02 03:59:40;;;;;;;42.63;26.65;;;;;;;2.62;100.00;67071.00;4925877;29;20493;-86
2022/03/02 04:02:06;;;;;;;40.45;24.85;;;;;;;2.62;100.00;67073.63;4942336;28;20571;-86
2022/03/02 04:04:32;;;;;;;41.45;28.38;;;;;;;2.71;100.00;67081.13;4942344;28;20131;-86
2022/03/02 04:06:58;;;;;;;37.80;25.67;;;;;;;2.81;100.00;67089.78;4929211;28;20129;-86
2022/03/02 04:09:23;;;;;;;39.75;25.92;;;;;;;2.83;100.00;67092.03;4936230;29;20055;-87
2022/03/02 04:11:49;;;;;;;41.28;25.63;;;;;;;2.92;100.00;67102.16;4916838;29;20135;-87
2022/03/02 04:14:14;;;;;;;38.83;23.50;;;;;;;2.91;100.00;67105.75;4909802;29;20044;-86
2022/03/02 04:16:40;;;;;;;38.03;25.55;;;;;;;2.87;100.00;67095.97;4917590;29;20051;-87
2022/03/02 04:19:06;;;;;;;37.90;23.55;;;;;;;2.84;100.00;67093.16;4921901;29;20044;-87
2022/03/02 04:21:32;;;;;;;41.45;23.58;;;;;;;2.63;100.00;67072.13;4908869;29;20124;-88
2022/03/02 04:23:58;;;;;;;41.60;24.88;;;;;;;2.68;100.00;67075.13;4910571;29;20051;-87
2022/03/02 04:26:24;;;;;;;38.63;25.58;;;;;;;;;;4900440;29;20048;-87
2022/03/02 04:28:50;;;;;;;42.08;24.75;;;;;;;2.73;100.00;67083.38;4923225;29;20052;-87
2022/03/02 04:31:16;;;;;;;38.97;24.67;;;;;;;2.77;100.00;67087.91;4921257;29;20066;-87
2022/03/02 04:33:41;;;;;;;39.83;24.10;;;;;;;2.79;100.00;67087.53;4902397;29;20525;-88
2022/03/02 04:36:07;;;;;;;40.33;24.65;;;;;;;2.72;100.00;67084.88;4920531;29;20044;-87
2022/03/02 04:38:33;;;;;;;42.95;24.20;;;;;;;2.69;100.00;67079.44;4911501;29;20075;-87
2022/03/02 04:40:59;;;;;;;39.95;24.17;;;;;;;2.73;100.00;67080.75;4910506;29;20051;-87
2022/03/02 04:43:24;;;;;;;38.25;24.98;;;;;;;2.61;100.00;67072.47;4922159;29;20040;-87
2022/03/02 04:45:51;;;;;;;42.20;27.27;;;;;;;2.66;100.00;67076.06;4909349;29;20062;-87
2022/03/02 04:48:17;;;;;;;40.72;24.77;;;;;;;2.70;100.00;67082.63;4910612;29;20142;-87
2022/03/02 04:50:43;;;;;;;38.75;24.48;;;;;;;2.66;100.00;67073.44;4908481;29;20084;-87
2022/03/02 04:53:09;;;;;;;39.17;24.25;;;;;;;2.75;100.00;67088.25;4906860;29;20059;-87
2022/03/02 04:55:35;;;;;;;42.42;26.77;;;;;;;2.82;100.00;67096.16;4912493;29;20040;-87
2022/03/02 04:58:01;;;;;;;43.25;27.23;;;;;;;2.79;100.00;67089.56;4911750;29;20048;-87
2022/03/02 05:00:30;;;;;;;41.88;26.33;;;;;;;2.73;100.00;67080.75;4915276;29;20040;-87
2022/03/02 05:02:57;;;;;;;37.42;25.13;;;;;;;2.62;100.00;67068.38;4909585;29;20052;-87
2022/03/02 05:05:23;;;;;;;42.17;24.48;;;;;;;;;;4919292;29;20036;-86
2022/03/02 05:07:49;;;;;;;42.22;26.45;;;;;;;2.49;100.00;67057.47;4907247;29;20107;-86
2022/03/02 05:10:17;;;;;;;42.40;25.92;;;;;;;2.48;100.00;67058.97;4921955;29;20135;-87
2022/03/02 05:12:43;;;;;;;41.78;25.67;;;;;;;2.44;100.00;67048.63;4904977;29;20110;-87
2022/03/02 05:15:10;;;;;;;41.10;26.88;;;;;;;2.55;100.00;67063.66;4905622;29;20048;-87
2022/03/02 05:17:37;;;;;;;40.92;26.60;;;;;;;2.64;100.00;67075.88;4911509;29;20134;-86
2022/03/02 05:20:04;;;;;;;38.03;25.35;;;;;;;2.52;100.00;67057.09;4920882;29;20405;-86
2022/03/02 05:22:30;;;;;;;41.22;27.00;;;;;;;2.56;100.00;67066.84;4906378;29;20052;-86
2022/03/02 05:24:55;;;;;;;39.30;27.92;;;;;;;2.49;100.00;67054.81;4897510;29;20064;-87
2022/03/02 05:27:21;;;;;;;40.17;25.85;;;;;;;2.58;100.00;67066.47;4897794;29;20047;-89
2022/03/02 05:29:46;;;;;;;43.70;26.40;;;;;;;2.42;100.00;67049.03;4902604;29;20052;-87
2022/03/02 05:32:12;;;;;;;44.95;28.73;;;;;;;2.47;100.00;67055.22;4901515;29;20087;-87
2022/03/02 05:34:37;;;;;;;43.42;28.23;;;;;;;2.51;100.00;67056.53;4904832;29;20630;-86
2022/03/02 05:37:03;;;;;;;41.28;27.40;;;;;;;2.36;100.00;67045.44;4901789;29;20106;-87
2022/03/02 05:39:29;;;;;;;39.40;26.85;;;;;;;2.48;100.00;67061.59;4908115;29;20055;-87
2022/03/02 05:41:55;;;;;;;44.00;29.15;;;;;;;2.36;100.00;67039.63;4899277;29;20055;-86
2022/03/02 05:44:21;;;;;;;46.63;29.45;;;;;;;2.32;100.00;67037.75;4902280;29;20417;-87
2022/03/02 05:46:48;;;;;;;44.25;29.95;;;;;;;2.45;100.00;67055.59;4909141;29;20123;-87
2022/03/02 05:49:14;;;;;;;38.63;23.00;;;;;;;;;;4934547;28;20533;-87
2022/03/02 05:51:39;;;;;;;42.47;25.55;;;;;;;2.21;100.00;67023.28;4922856;29;20131;-87
2022/03/02 05:54:08;;;;;;;49.17;28.70;;;;;;;2.21;100.00;67023.28;4922881;29;20086;-87
2022/03/02 05:56:34;;;;;;;44.10;27.63;;;;;;;2.22;100.00;67027.59;4899921;29;20126;-87
2022/03/02 05:58:59;;;;;;;42.78;29.52;;;;;;;2.16;100.00;67023.47;4928203;29;20818;-87
2022/03/02 06:01:25;;;;;;;40.83;26.92;;;;;;;;;;4891460;29;20131;-86
2022/03/02 06:03:51;;;;;;;43.22;27.80;;;;;;;2.15;100.00;67017.09;4906284;29;20066;-87
2022/03/02 06:06:16;;;;;;;38.88;25.83;;;;;;;1.91;100.00;66990.63;4890015;29;20409;-87
2022/03/02 06:08:43;;;;;;;45.95;28.88;;;;;;;2.05;100.00;67010.53;4879956;29;20052;-87
2022/03/02 06:11:09;;;;;;;45.28;26.75;;;;;;;1.94;100.00;66996.63;4867392;29;20041;-88
2022/03/02 06:13:35;;;;;;;44.40;27.40;;;;;;;1.89;100.00;66993.59;4872956;29;20044;-87
2022/03/02 06:16:02;;;;;;;41.85;29.13;;;;;;;1.87;100.00;66988.75;4876250;29;20049;-88
2022/03/02 06:18:29;;;;;;;45.22;26.30;;;;;;;1.82;100.00;66983.09;4877031;29;20130;-87
2022/03/02 06:21:00;;;;;;;41.33;26.38;;;;;;;1.84;100.00;66985.34;4881183;29;20139;-88
2022/03/02 06:23:27;;;;;;;43.00;27.20;;;;;;;1.81;100.00;66984.59;4876785;29;20516;-87
2022/03/02 06:25:53;;;;;;;43.45;25.90;;;;;;;1.78;100.00;66975.97;4870504;29;20037;-87
2022/03/02 06:28:20;;;;;;;42.17;24.35;;;;;;;1.57;100.00;66961.31;4887572;29;20053;-84
2022/03/02 06:30:45;;;;;;;43.33;26.60;;;;;;;1.49;100.00;66947.06;4875207;29;20061;-88
2022/03/02 06:33:15;;;;;;;44.58;29.23;;;;;;;1.50;100.00;66950.81;4946740;28;20050;-88
2022/03/02 06:35:40;;;;;;;44.95;27.55;;;;;;;1.42;100.00;66936.56;4954890;28;20067;-88
2022/03/02 06:38:06;;;;;;;43.45;27.35;;;;;;;1.36;100.00;66935.06;4958676;28;20111;-87
2022/03/02 06:40:31;;;;;;;46.15;29.58;;;;;;;1.19;100.00;66916.47;4939841;29;20085;-89
2022/03/02 06:43:07;;;;;;;49.50;26.75;;;;;;;1.01;100.00;66893.59;4945736;29;20055;-87
2022/03/02 06:45:50;;;;;;;42.53;27.60;;;;;;;1.04;100.00;66894.91;4934550;29;20056;-87
2022/03/02 06:48:18;;;;;;;46.95;28.33;;;;;;;0.99;100.00;66893.97;4947438;29;20040;-88
2022/03/02 06:50:49;;;;;;;45.70;27.90;;;;;;;0.96;100.00;66896.41;4949522;29;20099;-86
2022/03/02 06:53:15;;;;;;;44.35;30.27;;;;;;;1.07;100.00;66903.53;4950778;28;20055;-86
2022/03/02 06:55:43;;;;;;;45.47;29.02;;;;;;;1.10;100.00;66903.72;4965401;28;20047;-86
2022/03/02 06:58:12;;;;;;;42.28;25.38;;;;;;;1.01;100.00;66894.16;4957094;29;20040;-86
2022/03/02 07:00:39;;;;;;;51.53;29.17;;;;;;;1.10;100.00;66901.13;4927588;29;20144;-87
2022/03/02 07:03:09;;;;;;;48.00;27.33;;;;;;;1.05;100.00;66896.03;4959068;28;20050;-86
2022/03/02 07:05:36;;;;;;;45.22;27.50;;;;;;;1.07;100.00;66898.31;4945152;29;20075;-87
2022/03/02 07:08:03;;;;;;;43.83;26.73;;;;;;;0.99;100.00;66889.28;4938942;29;20075;-87
2022/03/02 07:10:33;;;;;;;38.40;21.33;;;;;;;0.92;100.00;66883.47;4924869;29;20142;-87
2022/03/02 07:13:01;;;;;;;42.38;23.20;;;;;;;0.97;100.00;66889.66;4933775;29;20086;-87
2022/03/02 07:15:28;;;;;;;43.88;25.45;;;;;;;1.19;100.00;66916.47;4907312;29;20048;-87
2022/03/02 07:17:53;;;;;;;42.40;27.30;;;;;;;1.35;100.00;66929.25;4920858;29;20064;-87
2022/03/02 07:20:20;;;;;;;37.63;25.45;;;;;;;1.46;100.00;66941.06;4924426;29;20075;-88
2022/03/02 07:22:52;;;;;;;37.90;24.13;;;;;;;1.51;100.00;66951.38;4910104;29;20052;-87
2022/03/02 07:25:29;;;;;;;39.67;24.90;;;;;;;1.61;100.00;66959.44;4910515;29;20985;-87
2022/03/02 07:27:56;;;;;;;37.13;22.50;;;;;;;1.72;100.00;66969.78;4925265;29;20056;-86
2022/03/02 07:30:22;;;;;;;31.50;21.25;;;;;;;1.82;100.00;66979.94;4914774;29;20099;-87
2022/03/02 07:32:48;;;;;;;34.88;23.10;;;;;;;1.92;99.85;66994.34;4922298;29;20068;-86
2022/03/02 07:35:15;;;;;;;38.42;23.35;;;;;;;1.99;99.16;66999.63;4907522;29;20043;-87
2022/03/02 07:37:44;;;;;;;35.75;23.05;;;;;;;2.01;99.50;67001.91;4925600;29;20056;-87
2022/03/02 07:40:10;;;;;;;36.00;23.50;;;;;;;2.07;98.50;67012.75;4920274;29;20404;-87
2022/03/02 07:42:37;;;;;;;33.50;20.05;;;;;;;2.15;97.67;67016.53;4948957;28;20048;-87
2022/03/02 07:45:04;;;;;;;32.25;21.70;;;;;;;2.22;96.74;67029.66;4928667;29;20138;-86
2022/03/02 07:47:30;;;;;;;35.72;22.15;;;;;;;2.23;97.01;67025.53;4942518;29;20094;-87
2022/03/02 07:49:55;;;;;;;32.35;22.10;;;;;;;2.29;97.00;67032.28;4926710;29;20056;-87
2022/03/02 07:52:29;;;;;;;33.65;23.45;;;;;;;2.30;96.47;67036.03;4926490;29;20060;-87
2022/03/02 07:54:58;;;;;;;34.00;22.92;;;;;;;2.36;96.34;67040.19;4919892;29;20052;-87
2022/03/02 07:57:24;;;;;;;31.98;21.27;;;;;;;2.39;96.43;67043.00;4905927;29;20500;-87
2022/03/02 07:59:51;;;;;;;34.38;21.02;;;;;;;;;;4908341;29;20135;-87
2022/03/02 08:02:17;;;;;;;30.67;21.95;;;;;;;;;;4910920;29;20044;-87
2022/03/02 08:04:43;;;;;;;30.85;21.52;;;;;;;2.64;94.20;67070.59;4927529;29;20526;-86
2022/03/02 08:07:10;;;;;;;31.60;20.52;;;;;;;;;;4925949;28;20079;-87
2022/03/02 08:09:37;;;;;;;29.98;18.67;;;;;;;2.87;91.74;67099.16;4931332;28;20095;-86
2022/03/02 08:12:04;;;;;;;33.83;21.88;;;;;;;2.97;92.50;67106.69;4928371;29;20062;-87
2022/03/02 08:14:32;;;;;;;34.55;22.75;;;;;;;2.97;91.02;67109.31;4941161;29;20515;-87
2022/03/02 08:16:58;;;;;;;33.90;21.83;;;;;;;3.04;91.42;67115.13;4941016;29;20052;-87
2022/03/02 08:19:24;;;;;;;32.65;22.05;;;;;;;3.11;90.94;67125.09;4937359;28;20043;-86
2022/03/02 08:21:56;;;;;;;29.55;20.58;;;;;;;;;;4941872;29;20039;-87
2022/03/02 08:24:26;;;;;;;27.50;20.40;;;;;;;3.22;89.81;67139.56;4944389;28;20051;-87
2022/03/02 08:26:54;;;;;;;31.70;21.23;;;;;;;3.28;89.45;67141.06;4923769;29;20117;-87
2022/03/02 08:29:20;;;;;;;29.02;20.15;;;;;;;3.35;89.20;67152.16;4930036;28;20078;-87
2022/03/02 08:31:47;;;;;;;29.48;18.63;;;;;;;3.44;87.97;67158.56;4923349;29;20040;-87
2022/03/02 08:34:13;;;;;;;26.73;16.55;;;;;;;3.59;87.18;67175.47;4924887;29;20054;-87
2022/03/02 08:36:42;;;;;;;29.08;19.23;;;;;;;3.67;87.56;67187.13;4927862;29;20047;-87
2022/03/02 08:39:11;;;;;;;30.30;19.35;;;;;;;3.77;86.36;67197.84;4941252;29;20139;-87
2022/03/02 08:41:39;;;;;;;25.65;17.83;;;;;;;3.89;85.22;67208.75;4924593;29;20040;-86
2022/03/02 08:44:08;;;;;;;22.63;16.40;;;;;;;3.96;82.20;67219.28;4927766;29;20036;-87
2022/03/02 08:46:34;;;;;;;25.23;18.60;;;;;;;4.12;83.03;67236.78;4920981;29;20075;-87
2022/03/02 08:49:00;;;;;;;28.83;18.02;;;;;;;4.14;83.21;67238.47;4904783;29;20513;-86
2022/03/02 08:51:26;;;;;;;27.05;17.10;;;;;;;4.19;82.46;67246.75;4914491;29;20448;-87
2022/03/02 08:53:59;;;;;;;24.88;17.98;;;;;;;4.33;81.94;67259.34;4922618;29;20064;-87
2022/03/02 08:56:25;;;;;;;23.88;16.35;;;;;;;4.50;82.66;67275.91;4931344;28;20134;-87
2022/03/02 08:58:53;;;;;;;23.55;15.13;;;;;;;4.67;79.12;67297.75;4925540;29;20050;-87
2022/03/02 09:01:19;;;;;;;25.52;15.98;;;;;;;4.81;79.05;67312.44;4925992;29;20134;-87
2022/03/02 09:03:48;;;;;;;24.30;16.15;;;;;;;4.90;78.22;67319.94;4927005;29;20130;-87
2022/03/02 09:06:18;;;;;;;23.63;13.98;;;;;;;5.16;75.89;67351.94;4924859;29;20136;-87
2022/03/02 09:08:43;;;;;;;22.40;15.85;;;;;;;5.20;75.71;67359.09;4942957;28;20061;-87
2022/03/02 09:11:09;;;;;;;22.00;13.95;;;;;;;5.31;73.81;67365.13;4925480;29;20040;-87
2022/03/02 09:13:37;;;;;;;20.15;12.77;;;;;;;5.51;72.02;67387.16;4939752;28;20055;-87
2022/03/02 09:16:04;;;;;;;19.38;12.43;;;;;;;5.68;72.98;67405.81;4923743;29;20058;-87
2022/03/02 09:18:30;;;;;;;21.42;12.80;;;;;;;;;;4940649;29;20075;-86
2022/03/02 09:20:59;;;;;;;23.05;12.82;;;;;;;5.94;69.97;67435.22;4946271;28;20744;-87
2022/03/02 09:23:29;;;;;;;17.98;10.52;;;;;;;6.05;64.86;67452.38;4925206;29;20497;-87
2022/03/02 09:25:58;;;;;;;18.08;11.63;;;;;;;6.03;67.51;67444.81;4943672;28;20552;-87
2022/03/02 09:28:27;;;;;;;19.10;11.10;;;;;;;6.05;67.61;67450.28;4929615;28;20053;-87
2022/03/02 09:30:53;;;;;;;17.95;11.63;;;;;;;5.99;67.63;67435.03;4926536;29;20677;-87
2022/03/02 09:33:23;;;;;;;19.20;11.93;;;;;;;6.27;67.19;67474.03;4927073;29;20126;-86
2022/03/02 09:35:49;;;;;;;16.85;11.25;;;;;;;6.45;64.89;67491.19;4921582;29;20103;-87
2022/03/02 09:38:19;;;;;;;19.60;11.20;;;;;;;6.53;65.27;67495.50;4940675;28;20047;-87
2022/03/02 09:40:49;;;;;;;18.13;11.02;;;;;;;6.64;64.43;67512.66;4946141;28;20044;-87
2022/03/02 09:43:19;;;;;;;21.10;11.63;;;;;;;6.80;65.19;67529.63;4946010;28;20049;-87
2022/03/02 09:45:49;;;;;;;15.00;10.20;;;;;;;6.86;63.13;67531.69;4952523;28;20471;-87
2022/03/02 09:48:34;;;;;;;18.38;10.32;;;;;;;7.04;60.96;67556.22;4936687;28;20408;-86
2022/03/02 09:51:02;;;;;;;17.77;10.75;;;;;;;;;;4956632;28;20500;-86
2022/03/02 09:53:29;;;;;;;15.55;10.23;;;;;;;;;;4934348;28;20122;-86
2022/03/02 09:55:55;;;;;;;16.13;11.93;;;;;;;;;;4949031;28;20051;-87
2022/03/02 09:58:22;;;;;;;14.30;9.50;;;;;;;;;;4928566;29;20135;-87
2022/03/02 10:00:47;;;;;;;18.00;11.13;;;;;;;;;;4926635;29;20123;-86
2022/03/02 10:03:19;;;;;;;14.18;9.27;;;;;;;7.55;59.67;67613.38;4927692;28;20556;-87
2022/03/02 10:05:48;;;;;;;15.57;8.95;;;;;;;;;;4928836;29;20086;-87
2022/03/02 10:08:19;;;;;;;15.45;9.73;;;;;;;7.59;57.00;67619.97;4944275;28;20067;-87
2022/03/02 10:10:47;;;;;;;15.52;9.80;;;;;;;7.79;57.90;67642.63;4914284;29;20051;-87
2022/03/02 10:13:14;;;;;;;14.25;9.98;;;;;;;7.83;57.35;67639.22;4939828;28;20377;-87
2022/03/02 10:15:40;;;;;;;16.50;9.05;;;;;;;;;;4926102;29;20473;-87
2022/03/02 10:18:06;;;;;;;13.18;9.07;;;;;;;;;;4926411;29;20036;-86
2022/03/02 10:20:34;;;;;;;15.23;8.60;;;;;;;;;;4907482;29;20103;-87
2022/03/02 10:23:00;;;;;;;12.77;8.23;;;;;;;8.08;52.61;67674.31;4910182;29;20059;-87
2022/03/02 10:25:59;;;;;;;12.82;8.77;;;;;;;8.12;57.05;67676.22;4925901;29;20436;-86
2022/03/02 10:28:25;;;;;;;;;;;;;;;8.12;53.79;67670.91;4902192;29;20055;-87
2022/03/02 10:31:09;;;;;;;13.45;9.85;;;;;;;8.07;53.04;67670.53;4908666;29;19915;-87
2022/03/02 10:33:38;;;;;;;15.13;9.65;;;;;;;8.10;54.26;67666.00;4921329;29;20048;-87
2022/03/02 10:36:06;;;;;;;12.15;9.43;;;;;;;8.16;55.21;67682.81;4931040;29;20134;-86
2022/03/02 10:38:57;;;;;;;13.65;10.27;;;;;;;8.12;55.90;67676.22;4932475;29;20046;-87
2022/03/02 10:41:24;;;;;;;13.48;9.07;;;;;;;8.21;52.47;67686.41;4917856;29;20035;-86
2022/03/02 10:44:01;;;;;;;17.65;9.80;;;;;;;;;;4932842;29;20055;-87
2022/03/02 10:46:27;;;;;;;15.15;9.30;;;;;;;8.21;52.70;67686.41;4948239;29;20071;-87
2022/03/02 10:49:04;;;;;;;15.45;10.38;;;;;;;8.31;53.97;67697.72;4921621;29;20052;-87
2022/03/02 10:51:32;;;;;;;13.63;9.68;;;;;;;8.48;53.82;67710.56;4948006;29;20048;-87
2022/03/02 10:54:01;;;;;;;14.13;9.48;;;;;;;8.53;52.89;67724.19;4940737;29;20047;-86
2022/03/02 10:56:27;;;;;;;16.55;9.90;;;;;;;8.56;53.13;67719.63;4932387;29;20061;-87
2022/03/02 10:58:53;;;;;;;16.60;9.25;;;;;;;;;;4948076;29;20035;-87
2022/03/02 11:01:20;;;;;;;12.75;9.05;;;;;;;8.63;51.08;67732.88;4951184;28;20047;-87
2022/03/02 11:03:45;;;;;;;14.05;8.70;;;;;;;8.63;51.34;67732.28;4923097;29;20404;-87
2022/03/02 11:06:11;;;;;;;15.75;9.85;;;;;;;8.66;50.31;67730.97;4932137;29;20048;-87
2022/03/02 11:08:37;;;;;;;13.30;9.50;;;;;;;;;;4932116;29;20079;-87
2022/03/02 11:11:06;;;;;;;16.50;10.23;;;;;;;8.77;50.42;67740.75;4918579;29;20385;-88
2022/03/02 11:13:31;;;;;;;12.40;9.32;;;;;;;8.91;51.17;67764.03;4919006;29;20051;-87
2022/03/02 11:16:00;;;;;;;14.52;9.55;;;;;;;8.94;50.39;67761.53;4910285;29;20402;-87
2022/03/02 11:18:55;;;;;;;16.83;9.80;;;;;;;;;;4926709;29;20123;-87
2022/03/02 11:21:27;;;;;;;12.32;8.02;;;;;;;9.14;50.26;67783.66;4916680;29;20048;-87
2022/03/02 11:23:54;;;;;;;13.60;9.70;;;;;;;9.17;50.94;67792.91;4925815;29;20048;-87
2022/03/02 11:26:26;;;;;;;12.52;8.52;;;;;;;9.33;49.16;67810.50;4933878;28;20081;-86
2022/03/02 11:28:53;;;;;;;11.77;8.20;;;;;;;9.33;49.64;67810.50;4936918;28;20058;-87
2022/03/02 11:31:21;;;;;;;14.27;8.25;;;;;;;;;;4931634;29;20480;-86
2022/03/02 11:33:47;;;;;;;12.65;7.70;;;;;;;9.35;49.52;67807.47;4932786;29;20099;-87
2022/03/02 11:36:18;;;;;;;13.00;9.00;;;;;;;9.40;49.76;67820.53;4931198;29;20040;-87
2022/03/02 11:38:50;;;;;;;13.15;9.77;;;;;;;9.43;50.87;67815.94;4944285;29;20066;-87
2022/03/02 11:41:16;;;;;;;13.05;8.40;;;;;;;;;;4937069;29;20043;-86